Time;durP1;ratioP1;P1;durP2;ratioP2;P2;SDS_P1;SDS_P2;PMS_P1;PMS_P2;Temp;Humidity;BMP_temperature;BMP_pressure;BME280_temperature;BME280_humidity;BME280_pressure;Samples;Min_cycle;Max_cycle;Signal;HPM_P1;HPM_P2
2023/11/17 00:04:08;;;;;;;12.73;7.38;;;5.70;99.90;;;;;;20783114;28;20945;-40
2023/11/17 00:14:08;;;;;;;12.60;6.60;;;5.60;99.90;;;;;;20788391;28;20443;-40
2023/11/17 00:24:10;;;;;;;12.77;6.38;;;5.60;99.90;;;;;;20784697;28;20471;-41
2023/11/17 00:34:11;;;;;;;10.15;6.35;;;5.60;99.90;;;;;;20794402;28;20044;-40
2023/11/17 00:44:11;;;;;;;11.98;6.47;;;5.60;99.90;;;;;;20815994;28;20903;-40
2023/11/17 00:54:14;;;;;;;13.48;6.97;;;5.70;99.90;;;;;;20812213;28;20057;-41
2023/11/17 01:04:15;;;;;;;11.60;6.20;;;5.70;99.90;;;;;;20818987;28;20140;-40
2023/11/17 01:14:16;;;;;;;11.88;6.03;;;5.70;99.90;;;;;;20816597;28;20045;-40
2023/11/17 01:24:16;;;;;;;9.23;5.72;;;5.80;99.90;;;;;;20818025;28;20514;-40
2023/11/17 01:34:17;;;;;;;10.73;5.85;;;5.70;99.90;;;;;;20821153;28;20053;-40
2023/11/17 01:44:17;;;;;;;8.05;5.57;;;5.70;99.90;;;;;;20821955;28;20171;-40
2023/11/17 01:54:19;;;;;;;10.93;5.30;;;5.70;99.90;;;;;;20823699;28;20051;-40
2023/11/17 02:04:19;;;;;;;9.77;5.93;;;5.80;99.90;;;;;;20818565;28;20088;-40
2023/11/17 02:14:22;;;;;;;8.60;5.90;;;5.70;99.90;;;;;;20818928;28;20041;-40
2023/11/17 02:24:26;;;;;;;12.55;6.97;;;5.80;99.90;;;;;;20812553;28;20057;-40
2023/11/17 02:34:27;;;;;;;11.57;6.43;;;5.70;99.90;;;;;;20810389;28;20226;-40
2023/11/17 02:44:33;;;;;;;13.88;7.60;;;5.70;99.90;;;;;;20807053;28;20037;-40
2023/11/17 02:54:35;;;;;;;12.38;7.20;;;5.60;99.90;;;;;;20810151;28;20049;-40
2023/11/17 03:04:37;;;;;;;10.98;6.68;;;5.60;99.90;;;;;;20812083;28;20118;-40
2023/11/17 03:14:39;;;;;;;12.77;7.18;;;5.60;99.90;;;;;;20814734;28;20037;-40
2023/11/17 03:24:41;;;;;;;12.88;8.00;;;5.50;99.90;;;;;;20812180;28;20044;-40
2023/11/17 03:34:42;;;;;;;13.30;7.82;;;5.60;99.90;;;;;;20806975;28;20099;-40
2023/11/17 03:44:42;;;;;;;15.18;8.20;;;5.60;99.90;;;;;;20803917;28;20044;-41
2023/11/17 03:54:43;;;;;;;14.35;8.27;;;5.70;99.90;;;;;;20807763;28;20768;-40
2023/11/17 04:04:43;;;;;;;16.35;9.65;;;5.70;99.90;;;;;;20809357;28;20487;-40
2023/11/17 04:14:45;;;;;;;22.60;11.95;;;5.70;99.90;;;;;;20811141;28;20033;-40
2023/11/17 04:24:46;;;;;;;19.55;12.20;;;5.70;99.90;;;;;;20833243;28;20037;-40
2023/11/17 04:34:49;;;;;;;21.23;11.23;;;5.70;99.90;;;;;;20827078;28;20045;-40
2023/11/17 04:44:49;;;;;;;18.70;11.27;;;5.70;99.90;;;;;;20826100;28;20417;-40
2023/11/17 04:54:50;;;;;;;16.33;9.97;;;5.70;99.90;;;;;;20825760;28;20504;-40
2023/11/17 05:04:51;;;;;;;21.63;11.40;;;5.80;99.90;;;;;;20823538;28;20468;-40
2023/11/17 05:14:53;;;;;;;17.23;10.90;;;5.80;99.90;;;;;;20820070;28;20132;-40
2023/11/17 05:24:54;;;;;;;18.15;10.23;;;5.90;99.90;;;;;;20821416;28;20403;-40
2023/11/17 05:34:55;;;;;;;17.63;9.93;;;5.80;99.90;;;;;;20820412;28;20033;-40
2023/11/17 05:44:55;;;;;;;16.55;9.32;;;5.70;99.90;;;;;;20824486;28;20566;-41
2023/11/17 05:54:56;;;;;;;20.55;10.60;;;5.70;99.90;;;;;;20824249;28;20050;-40
2023/11/17 06:04:56;;;;;;;20.65;10.45;;;5.70;99.90;;;;;;20821396;28;20067;-40
2023/11/17 06:14:57;;;;;;;27.67;12.27;;;5.80;99.90;;;;;;20817203;28;20040;-40
2023/11/17 06:24:57;;;;;;;23.88;12.88;;;5.80;99.90;;;;;;20803208;28;20064;-40
2023/11/17 06:34:58;;;;;;;26.38;12.98;;;5.80;99.90;;;;;;20816110;28;20172;-40
2023/11/17 06:44:59;;;;;;;29.73;14.55;;;5.80;99.90;;;;;;20822506;28;20045;-40
2023/11/17 06:54:59;;;;;;;28.38;14.15;;;5.70;99.90;;;;;;20817732;28;20518;-40
2023/11/17 07:05:00;;;;;;;30.08;14.35;;;5.70;99.90;;;;;;20811902;28;20087;-40
2023/11/17 07:15:03;;;;;;;36.42;16.50;;;5.60;99.90;;;;;;20816844;28;20770;-40
2023/11/17 07:25:04;;;;;;;31.23;16.98;;;5.50;99.90;;;;;;20814755;28;20059;-40
2023/11/17 07:35:06;;;;;;;35.80;18.73;;;5.70;99.90;;;;;;20812435;28;20404;-40
2023/11/17 07:45:10;;;;;;;31.58;16.65;;;5.80;99.90;;;;;;20808016;28;20099;-40
2023/11/17 08:12:00;;;;;;;30.35;16.17;;;5.90;99.90;;;;;;20835434;27;20677;-45
2023/11/17 08:22:00;;;;;;;24.63;14.60;;;6.40;99.90;;;;;;20866343;28;21782;-45
2023/11/17 08:32:01;;;;;;;24.45;13.43;;;6.40;99.90;;;;;;20859607;28;20119;-45
2023/11/17 08:42:02;;;;;;;25.52;14.82;;;6.30;99.90;;;;;;20862889;28;20028;-45
2023/11/17 08:52:05;;;;;;;25.55;14.38;;;6.40;99.90;;;;;;20847571;28;20116;-45
2023/11/17 09:02:07;;;;;;;23.67;13.68;;;6.70;99.90;;;;;;20818284;28;20038;-45
2023/11/17 09:12:09;;;;;;;29.83;15.20;;;6.80;99.90;;;;;;20774277;28;20049;-45
2023/11/17 09:22:10;;;;;;;26.65;14.98;;;7.10;99.90;;;;;;20781487;28;20041;-45
2023/11/17 09:32:10;;;;;;;27.98;15.50;;;7.30;99.90;;;;;;20782809;28;20056;-45
2023/11/17 09:42:12;;;;;;;28.77;15.23;;;7.20;99.90;;;;;;20739503;28;20041;-45
2023/11/17 09:52:15;;;;;;;28.20;15.38;;;7.30;99.90;;;;;;20720505;28;20494;-45
2023/11/17 10:02:20;;;;;;;26.70;14.27;;;7.40;99.90;;;;;;20773619;28;20509;-45
2023/11/17 10:12:22;;;;;;;27.45;14.02;;;7.40;99.90;;;;;;20778455;28;20052;-44
2023/11/17 10:22:22;;;;;;;26.17;13.35;;;7.50;99.90;;;;;;20757734;28;20097;-44
2023/11/17 10:32:26;;;;;;;19.52;11.82;;;7.80;99.90;;;;;;20784712;28;20076;-44
2023/11/17 10:42:28;;;;;;;21.75;11.98;;;7.90;99.90;;;;;;20791728;28;20038;-44
2023/11/17 10:52:28;;;;;;;18.83;11.95;;;8.10;90.20;;;;;;20786774;28;20040;-44
2023/11/17 11:02:30;;;;;;;21.25;11.77;;;8.20;60.00;;;;;;20777933;28;21827;-44
2023/11/17 11:12:30;;;;;;;18.38;10.88;;;8.30;71.50;;;;;;20759986;28;20388;-44
2023/11/17 11:22:31;;;;;;;19.23;10.60;;;8.80;50.80;;;;;;20783053;28;20030;-44
2023/11/17 11:32:34;;;;;;;18.10;9.73;;;9.30;26.80;;;;;;20802847;28;20032;-44
2023/11/17 11:42:35;;;;;;;19.40;9.55;;;9.50;33.00;;;;;;20803707;28;20039;-44
2023/11/17 11:52:46;;;;;;;8.73;5.95;;;10.10;16.30;;;;;;20800627;28;20050;-44
2023/11/17 12:03:00;;;;;;;14.30;7.43;;;11.20;1.00;;;;;;20801723;28;20068;-44
2023/11/17 12:13:01;;;;;;;8.68;5.22;;;11.40;1.00;;;;;;20795618;28;20054;-44
2023/11/17 12:23:05;;;;;;;9.98;5.25;;;11.80;1.00;;;;;;20799065;28;20564;-44
2023/11/17 12:33:07;;;;;;;9.88;5.00;;;12.10;1.00;;;;;;20806620;28;20053;-44
2023/11/17 12:43:08;;;;;;;8.20;5.30;;;12.50;1.00;;;;;;20807544;28;20037;-44
2023/11/17 12:53:09;;;;;;;8.40;5.05;;;12.70;1.00;;;;;;20817687;28;20048;-44
2023/11/17 13:03:10;;;;;;;8.75;5.05;;;12.70;1.00;;;;;;20818958;28;20064;-44
2023/11/17 13:13:12;;;;;;;8.25;5.03;;;12.70;1.00;;;;;;20815882;28;20049;-44
2023/11/17 13:23:13;;;;;;;11.20;6.03;;;12.50;1.00;;;;;;20816805;28;20489;-44
2023/11/17 13:33:13;;;;;;;11.98;6.70;;;12.60;1.00;;;;;;20795618;28;20502;-44
2023/11/17 13:43:17;;;;;;;12.40;7.50;;;11.90;1.00;;;;;;20810111;28;20514;-44
2023/11/17 13:53:18;;;;;;;12.85;7.43;;;11.40;1.00;;;;;;20813521;28;20049;-44
2023/11/17 14:03:19;;;;;;;10.38;5.68;;;11.00;1.00;;;;;;20812959;28;20052;-44
2023/11/17 14:13:19;;;;;;;12.57;6.50;;;10.60;1.00;;;;;;20806375;28;20057;-44
2023/11/17 14:23:20;;;;;;;9.77;6.63;;;10.60;1.00;;;;;;20810795;28;20037;-44
2023/11/17 14:33:21;;;;;;;9.80;6.10;;;10.90;1.00;;;;;;20788941;28;20041;-44
2023/11/17 14:43:22;;;;;;;11.25;6.55;;;11.30;1.00;;;;;;20806340;28;20482;-44
2023/11/17 14:53:22;;;;;;;10.95;6.38;;;10.70;1.00;;;;;;20800683;28;20053;-44
2023/11/17 15:03:23;;;;;;;9.38;5.65;;;10.40;1.00;;;;;;20799756;28;20382;-44
2023/11/17 15:13:24;;;;;;;10.55;5.63;;;10.10;1.00;;;;;;20803442;28;20065;-44
2023/11/17 15:23:25;;;;;;;10.13;6.03;;;9.70;1.00;;;;;;20808712;28;20576;-44
2023/11/17 15:33:25;;;;;;;10.38;6.50;;;9.40;1.00;;;;;;20808815;28;20268;-44
2023/11/17 15:43:30;;;;;;;10.82;6.55;;;9.20;1.00;;;;;;20800700;28;20044;-44
2023/11/17 15:53:32;;;;;;;9.80;6.30;;;8.80;1.00;;;;;;20808431;28;20529;-44
2023/11/17 16:03:33;;;;;;;13.35;7.72;;;8.60;1.00;;;;;;20805665;28;20045;-44
2023/11/17 16:13:33;;;;;;;12.52;7.28;;;8.50;1.00;;;;;;20801476;28;20765;-44
2023/11/17 16:23:37;;;;;;;14.38;8.68;;;8.40;1.00;;;;;;20801529;28;20041;-44
2023/11/17 16:33:40;;;;;;;14.27;8.95;;;8.10;4.50;;;;;;20820258;28;20080;-44
2023/11/17 16:43:41;;;;;;;14.23;9.07;;;8.00;13.30;;;;;;20817441;28;20060;-44
2023/11/17 16:53:41;;;;;;;16.80;9.98;;;8.00;19.40;;;;;;20817442;28;20053;-44
2023/11/17 17:03:42;;;;;;;20.70;12.02;;;8.00;22.00;;;;;;20818332;28;20044;-44
2023/11/17 17:13:42;;;;;;;19.80;10.90;;;8.00;24.70;;;;;;20810420;28;20133;-44
2023/11/17 17:23:43;;;;;;;25.13;12.73;;;8.00;28.80;;;;;;20820192;28;20053;-44
2023/11/17 17:33:44;;;;;;;23.00;11.88;;;7.90;30.30;;;;;;20813919;28;20124;-44
2023/11/17 17:43:46;;;;;;;25.80;13.80;;;7.80;35.80;;;;;;20809706;28;20068;-44
2023/11/17 17:53:47;;;;;;;24.45;13.40;;;7.80;50.10;;;;;;20809018;28;20050;-44
2023/11/17 18:03:48;;;;;;;22.60;12.48;;;7.60;55.20;;;;;;20796839;28;20045;-43
2023/11/17 18:13:50;;;;;;;24.65;13.98;;;7.50;64.90;;;;;;20801828;28;20049;-44
2023/11/17 18:23:50;;;;;;;25.48;14.70;;;7.40;74.70;;;;;;20802946;28;20037;-44
2023/11/17 18:33:52;;;;;;;22.63;12.80;;;7.50;87.90;;;;;;20796804;28;20103;-44
2023/11/17 18:43:53;;;;;;;21.88;12.10;;;7.60;84.10;;;;;;20803989;28;20043;-44
2023/11/17 18:53:54;;;;;;;24.25;12.98;;;7.80;79.70;;;;;;20795213;28;20040;-44
2023/11/17 19:03:55;;;;;;;26.27;13.07;;;7.80;71.90;;;;;;20789083;28;20051;-44
2023/11/17 19:13:57;;;;;;;20.73;12.37;;;7.90;50.60;;;;;;20767255;28;20099;-44
2023/11/17 19:24:00;;;;;;;22.80;13.07;;;7.90;46.50;;;;;;20776513;28;21096;-44
2023/11/17 19:34:01;;;;;;;26.55;14.18;;;7.80;43.10;;;;;;20789406;28;20051;-44
2023/11/17 19:44:01;;;;;;;24.98;14.40;;;7.80;43.30;;;;;;20786853;28;20041;-44
2023/11/17 19:54:03;;;;;;;27.98;15.93;;;7.70;42.50;;;;;;20768594;28;20445;-44
2023/11/17 20:04:06;;;;;;;27.38;15.80;;;7.60;48.00;;;;;;20785324;28;20049;-44
2023/11/17 20:14:07;;;;;;;33.78;17.58;;;7.50;58.80;;;;;;20799377;28;20060;-44
2023/11/17 20:24:09;;;;;;;32.80;16.75;;;7.50;59.10;;;;;;20789258;28;20483;-44
2023/11/17 20:34:12;;;;;;;32.28;17.33;;;7.40;61.40;;;;;;20781759;28;20049;-43
2023/11/17 20:44:14;;;;;;;30.65;17.90;;;7.30;75.70;;;;;;20786458;28;20125;-44
2023/11/17 20:54:18;;;;;;;33.03;18.58;;;7.30;94.20;;;;;;20761146;28;20436;-43
2023/11/17 21:04:18;;;;;;;30.77;18.75;;;7.40;96.20;;;;;;20787377;28;20473;-44
2023/11/17 21:14:19;;;;;;;33.92;19.55;;;7.40;94.90;;;;;;20796032;28;20168;-44
2023/11/17 21:24:19;;;;;;;33.70;19.90;;;7.70;91.50;;;;;;20785717;28;20090;-44
2023/11/17 21:34:21;;;;;;;31.55;19.60;;;7.60;92.90;;;;;;20763707;28;20643;-44
2023/11/17 21:44:21;;;;;;;34.83;19.88;;;7.50;99.90;;;;;;20780488;28;20041;-44
2023/11/17 21:54:22;;;;;;;35.35;20.83;;;7.50;99.90;;;;;;20752461;28;20041;-44
2023/11/17 22:04:23;;;;;;;32.67;18.58;;;7.60;91.90;;;;;;20752599;28;20037;-44
2023/11/17 22:14:24;;;;;;;35.55;20.13;;;7.50;86.80;;;;;;20779754;28;20042;-43
2023/11/17 22:24:24;;;;;;;35.13;19.48;;;7.20;99.90;;;;;;20777413;28;20041;-44
2023/11/17 22:34:25;;;;;;;35.45;20.52;;;7.10;99.90;;;;;;20780398;28;20495;-43
2023/11/17 22:44:26;;;;;;;34.67;19.25;;;7.20;99.90;;;;;;20796405;28;20044;-44
2023/11/17 22:54:27;;;;;;;37.33;19.50;;;7.10;99.90;;;;;;20804963;28;20072;-44
2023/11/17 23:04:28;;;;;;;35.50;18.73;;;7.00;99.90;;;;;;20779905;28;20589;-43
2023/11/17 23:14:29;;;;;;;34.35;19.08;;;7.00;99.90;;;;;;20767906;28;20053;-44
2023/11/17 23:24:31;;;;;;;35.25;19.67;;;6.90;99.90;;;;;;20780715;28;20686;-43
2023/11/17 23:34:32;;;;;;;32.80;20.17;;;7.00;99.90;;;;;;20784374;28;20049;-43
2023/11/17 23:44:33;;;;;;;31.55;18.88;;;6.90;99.90;;;;;;20789646;28;20063;-43
2023/11/17 23:54:33;;;;;;;31.55;18.25;;;7.10;99.90;;;;;;20787040;28;20414;-44
